Terminal Aerodrome Forecast
Issued by NWS Grand Forks, ND

Home | Current Version | Previous Version | Graphics & Text | Print | Product List | Glossary On
Versions: 1 2 3 4 5 6 7 8 9 10 11 12 13 14 15 16 17
144
FTUS43 KFGF 241022 AAA
TAFFAR
TAF AMD
KFAR 241022Z 2410/2506 06003KT 5SM BR SCT250
      TEMPO 2410/2412 1/4SM FG VV002
     FM241800 14009KT P6SM SCT080=

USA.gov is the U.S. government's official web portal to all federal, state and local government web resources and services.